Time;durP1;ratioP1;P1;durP2;ratioP2;P2;SDS_P1;SDS_P2;PMS_P1;PMS_P2;Temp;Humidity;BMP_temperature;BMP_pressure;BME280_temperature;BME280_humidity;BME280_pressure;Samples;Min_cycle;Max_cycle;Signal;HPM_P1;HPM_P2
2021/11/05 00:00:41;;;;;;;6.87;3.55;;;;;;;9.11;62.26;100105.56;4363950;32;32948;-86
2021/11/05 00:03:09;;;;;;;7.55;4.00;;;;;;;9.39;61.41;100104.13;4364100;32;33862;-86
2021/11/05 00:05:37;;;;;;;8.02;4.28;;;;;;;9.31;61.45;100105.16;4388205;32;33162;-86
2021/11/05 00:08:08;;;;;;;8.50;4.30;;;;;;;9.18;61.53;100101.94;4376092;32;34396;-86
2021/11/05 00:10:40;;;;;;;6.93;3.67;;;;;;;9.18;61.76;100106.28;4376028;32;32946;-87
2021/11/05 00:13:10;;;;;;;8.05;4.65;;;;;;;9.26;61.71;100099.19;4363808;32;34131;-86
2021/11/05 00:15:38;;;;;;;6.95;3.40;;;;;;;9.15;62.05;100106.34;4364309;32;34129;-86
2021/11/05 00:18:07;;;;;;;6.32;3.30;;;;;;;8.82;63.48;100119.06;4376477;32;34538;-86
2021/11/05 00:20:35;;;;;;;10.15;3.80;;;;;;;9.21;62.44;100124.41;4387887;32;33611;-87
2021/11/05 00:23:03;;;;;;;6.32;3.70;;;;;;;9.40;62.34;100127.53;4387730;32;34052;-87
2021/11/05 00:25:31;;;;;;;7.43;3.22;;;;;;;9.43;62.19;100126.62;4376436;32;34504;-85
2021/11/05 00:27:59;;;;;;;5.25;3.08;;;;;;;9.33;62.26;100136.31;4351026;32;33151;-87
2021/11/05 00:30:27;;;;;;;5.65;3.03;;;;;;;9.53;61.55;100129.00;4364079;32;33430;-87
2021/11/05 00:32:55;;;;;;;8.13;3.53;;;;;;;9.54;61.37;100135.03;4363771;32;34520;-87
2021/11/05 00:35:23;;;;;;;8.20;3.65;;;;;;;9.49;61.72;100139.47;4400841;32;35623;-87
2021/11/05 00:37:51;;;;;;;6.07;3.47;;;;;;;9.24;62.01;100141.69;4375679;32;33172;-86
2021/11/05 00:40:19;;;;;;;5.70;3.58;;;;;;;9.42;61.72;100143.94;4363387;32;33946;-87
2021/11/05 00:42:47;;;;;;;6.30;3.40;;;;;;;9.41;61.64;100137.03;4400696;32;32317;-86
2021/11/05 00:45:16;;;;;;;7.80;3.40;;;;;;;9.50;61.27;100131.63;4376139;32;33170;-87
2021/11/05 00:47:43;;;;;;;5.50;3.10;;;;;;;9.46;60.79;100137.78;4366498;32;34962;-87
2021/11/05 00:50:11;;;;;;;4.82;2.67;;;;;;;9.45;61.12;100135.22;4401047;32;33253;-85
2021/11/05 00:52:40;;;;;;;5.53;2.75;;;;;;;9.58;60.54;100131.50;4365981;32;33738;-87
2021/11/05 00:55:08;;;;;;;4.68;2.65;;;;;;;9.29;61.21;100119.94;4376250;32;34378;-87
2021/11/05 00:57:36;;;;;;;5.65;2.85;;;;;;;9.58;60.84;100115.03;4363288;32;33474;-87
2021/11/05 01:00:08;;;;;;;6.18;2.70;;;;;;;9.33;61.29;100115.53;4375777;32;32873;-87
2021/11/05 01:02:36;;;;;;;4.97;2.45;;;;;;;9.73;60.28;100113.84;4350837;32;33080;-87
2021/11/05 01:05:12;;;;;;;5.12;2.50;;;;;;;9.81;59.88;100104.13;4363177;32;33972;-86
2021/11/05 01:07:40;;;;;;;3.97;2.30;;;;;;;9.91;58.45;100103.03;4350772;32;33841;-87
2021/11/05 01:10:08;;;;;;;3.95;2.10;;;;;;;9.50;58.99;100107.38;4375484;32;33277;-87
2021/11/05 01:12:36;;;;;;;3.78;1.90;;;;;;;9.47;59.19;100115.25;4376080;32;33453;-87
2021/11/05 01:15:06;;;;;;;3.78;1.87;;;;;;;9.18;59.77;100121.87;4375728;32;33310;-87
2021/11/05 01:17:35;;;;;;;4.47;2.05;;;;;;;9.38;59.26;100124.09;4362739;32;34086;-88
2021/11/05 01:20:07;;;;;;;4.65;2.20;;;;;;;9.25;59.31;100127.81;4364076;32;34296;-86
2021/11/05 01:22:35;;;;;;;5.05;2.35;;;;;;;9.27;59.53;100133.88;4374841;32;34915;-87
2021/11/05 01:25:03;;;;;;;3.70;1.95;;;;;;;9.39;58.84;100125.81;4375376;32;33408;-87
2021/11/05 01:27:30;;;;;;;3.62;2.08;;;;;;;9.29;58.73;100138.16;4375426;32;34396;-87
2021/11/05 01:29:59;;;;;;;4.65;2.10;;;;;;;9.05;59.58;100133.41;4374996;32;32899;-86
2021/11/05 01:32:27;;;;;;;3.30;1.60;;;;;;;9.15;59.33;100125.41;4374798;32;33206;-86
2021/11/05 01:34:56;;;;;;;4.25;2.12;;;;;;;9.53;58.28;100116.00;4364356;32;34747;-87
2021/11/05 01:37:24;;;;;;;3.90;1.98;;;;;;;9.68;58.20;100109.59;4364277;32;35507;-87
2021/11/05 01:39:53;;;;;;;3.53;1.70;;;;;;;9.54;58.46;100098.63;4365236;32;34468;-86
2021/11/05 01:42:22;;;;;;;3.53;1.60;;;;;;;9.60;58.02;100087.22;4364856;32;34017;-86
2021/11/05 01:44:50;;;;;;;2.42;1.45;;;;;;;9.52;57.75;100071.81;4377187;32;33301;-86
2021/11/05 01:47:18;;;;;;;6.35;3.17;;;;;;;9.84;57.18;100070.25;4377453;32;33134;-87
2021/11/05 01:49:47;;;;;;;3.10;1.67;;;;;;;9.80;57.17;100079.00;4364495;32;33780;-87
2021/11/05 01:52:15;;;;;;;4.00;2.00;;;;;;;9.92;56.90;100091.75;4364344;32;33440;-86
2021/11/05 01:54:44;;;;;;;3.85;1.98;;;;;;;9.53;57.98;100102.09;4364866;32;33414;-87
2021/11/05 01:57:12;;;;;;;5.05;2.28;;;;;;;9.07;59.83;100101.28;4389451;32;34436;-87
2021/11/05 01:59:40;;;;;;;3.25;2.05;;;;;;;8.85;60.45;100104.31;4376990;32;32913;-86
2021/11/05 02:02:08;;;;;;;4.68;2.28;;;;;;;8.91;60.24;100102.44;4376975;32;32847;-87
2021/11/05 02:04:37;;;;;;;3.50;1.83;;;;;;;9.07;59.97;100113.41;4365225;32;34593;-86
2021/11/05 02:07:09;;;;;;;4.07;2.25;;;;;;;8.92;60.63;100130.16;4363972;32;33574;-85
2021/11/05 02:09:39;;;;;;;5.80;2.37;;;;;;;8.42;62.92;100151.72;4364898;32;34105;-86
2021/11/05 02:12:07;;;;;;;3.95;2.30;;;;;;;8.36;62.88;100151.81;4364924;32;34296;-87
2021/11/05 02:14:35;;;;;;;3.80;2.20;;;;;;;8.83;61.45;100163.22;4389571;32;34309;-87
2021/11/05 02:17:06;;;;;;;3.87;2.33;;;;;;;8.63;61.85;100160.97;4377208;32;34500;-85
2021/11/05 02:19:34;;;;;;;3.85;2.22;;;;;;;8.63;61.92;100175.69;4364861;32;34361;-87
2021/11/05 02:22:03;;;;;;;5.10;2.50;;;;;;;8.59;61.85;100189.59;4376406;32;34364;-86
2021/11/05 02:24:32;;;;;;;4.47;2.90;;;;;;;8.88;60.68;100191.72;4376985;32;34035;-86
2021/11/05 02:27:01;;;;;;;4.90;2.47;;;;;;;8.75;60.86;100195.41;4376961;32;33139;-87
2021/11/05 02:29:32;;;;;;;4.18;2.42;;;;;;;9.09;59.85;100205.25;4377114;32;34272;-86
2021/11/05 02:32:00;;;;;;;4.05;2.08;;;;;;;9.67;58.25;100211.94;4377274;32;33010;-87
2021/11/05 02:34:29;;;;;;;5.18;2.67;;;;;;;9.73;58.30;100204.91;4365018;32;32766;-87
2021/11/05 02:36:58;;;;;;;5.75;2.75;;;;;;;9.76;58.27;100191.84;4377715;32;33726;-87
2021/11/05 02:39:27;;;;;;;5.95;3.80;;;;;;;9.70;59.09;100203.22;4376634;32;34054;-86
2021/11/05 02:41:55;;;;;;;4.60;2.83;;;;;;;9.84;58.77;100201.22;4363630;32;33752;-86
2021/11/05 02:44:23;;;;;;;4.78;2.30;;;;;;;9.99;58.45;100209.59;4376640;32;33310;-87
2021/11/05 02:46:52;;;;;;;6.18;2.35;;;;;;;9.84;58.59;100213.37;4375918;32;33682;-86
2021/11/05 02:49:19;;;;;;;4.07;2.37;;;;;;;9.96;58.02;100207.06;4363996;32;32901;-85
2021/11/05 02:51:49;;;;;;;4.75;2.33;;;;;;;9.64;58.93;100208.53;4376246;32;34672;-86
2021/11/05 02:54:17;;;;;;;4.85;2.47;;;;;;;9.56;59.22;100207.84;4391070;32;34343;-87
2021/11/05 02:56:46;;;;;;;4.22;2.25;;;;;;;9.32;59.62;100200.50;4401365;32;33424;-85
2021/11/05 02:59:14;;;;;;;5.68;2.33;;;;;;;9.32;59.85;100205.69;4376550;32;32479;-86
2021/11/05 03:01:42;;;;;;;5.28;2.42;;;;;;;9.46;59.09;100204.56;4364575;32;34073;-87
2021/11/05 03:04:11;;;;;;;5.15;2.90;;;;;;;9.19;59.66;100212.00;4363589;32;33494;-87
2021/11/05 03:06:41;;;;;;;4.50;2.45;;;;;;;9.18;59.82;100220.69;4377028;32;34079;-86
2021/11/05 03:09:11;;;;;;;5.45;2.67;;;;;;;9.35;59.35;100213.44;4376378;32;34039;-87
2021/11/05 03:11:39;;;;;;;5.12;2.87;;;;;;;9.50;58.98;100211.44;4364597;32;33425;-87
2021/11/05 03:14:07;;;;;;;6.35;2.80;;;;;;;9.55;58.86;100204.41;4364089;32;35852;-86
2021/11/05 03:16:37;;;;;;;6.65;3.03;;;;;;;9.52;58.87;100201.88;4376726;32;33000;-86
2021/11/05 03:19:06;;;;;;;4.93;3.00;;;;;;;9.23;59.32;100200.66;4351934;32;32906;-87
2021/11/05 03:21:34;;;;;;;5.40;3.15;;;;;;;8.77;60.87;100207.47;4376617;32;34218;-86
2021/11/05 03:24:02;;;;;;;5.68;3.80;;;;;;;8.96;60.04;100213.25;4363521;32;33364;-87
2021/11/05 03:26:30;;;;;;;7.35;3.47;;;;;;;8.83;60.26;100215.19;4364182;32;34120;-86
2021/11/05 03:28:57;;;;;;;6.62;3.30;;;;;;;8.76;60.64;100225.69;4364207;32;32848;-87
2021/11/05 03:31:26;;;;;;;5.85;3.50;;;;;;;8.95;60.27;100219.31;4351885;32;33549;-86
2021/11/05 03:33:53;;;;;;;5.80;3.50;;;;;;;8.41;61.92;100221.88;4376682;32;34128;-86
2021/11/05 03:36:23;;;;;;;5.87;3.08;;;;;;;8.26;62.43;100226.38;4364435;32;33415;-86
2021/11/05 03:38:51;;;;;;;5.05;3.10;;;;;;;8.41;61.67;100221.88;4364486;32;34122;-86
2021/11/05 03:41:20;;;;;;;4.68;2.87;;;;;;;8.90;60.09;100220.28;4401834;32;33676;-88
2021/11/05 03:43:48;;;;;;;5.05;3.10;;;;;;;8.84;59.79;100210.84;4394422;32;33862;-86
2021/11/05 03:46:17;;;;;;;7.50;3.15;;;;;;;8.82;59.87;100213.47;4376584;32;33855;-87
2021/11/05 03:48:45;;;;;;;6.12;2.90;;;;;;;8.82;59.89;100207.41;4352924;32;32405;-87
2021/11/05 03:51:12;;;;;;;4.72;2.72;;;;;;;8.90;59.49;100202.09;4401456;32;33503;-88
2021/11/05 03:53:41;;;;;;;6.80;3.40;;;;;;;8.94;59.45;100207.22;4426356;32;34330;-87
2021/11/05 03:56:09;;;;;;;4.90;3.05;;;;;;;9.09;58.84;100208.69;4400671;32;33153;-87
2021/11/05 03:58:37;;;;;;;5.03;3.10;;;;;;;8.86;59.26;100209.09;4363952;32;33312;-88
2021/11/05 04:01:05;;;;;;;4.82;2.80;;;;;;;8.86;59.40;100216.87;4364768;32;34223;-87
2021/11/05 04:03:34;;;;;;;4.85;3.17;;;;;;;9.03;59.06;100211.41;4377664;32;33950;-87
2021/11/05 04:06:03;;;;;;;6.30;3.20;;;;;;;9.11;58.86;100216.47;4364580;32;33185;-87
2021/11/05 04:08:31;;;;;;;9.30;3.50;;;;;;;9.08;59.14;100221.72;4364756;32;33709;-86
2021/11/05 04:11:00;;;;;;;7.32;3.72;;;;;;;8.91;59.64;100225.47;4376002;32;32988;-88
2021/11/05 04:13:28;;;;;;;6.47;3.22;;;;;;;9.09;59.06;100233.84;4376465;32;34461;-86
2021/11/05 04:15:55;;;;;;;5.87;3.65;;;;;;;8.90;59.49;100231.53;4376348;32;34849;-86
2021/11/05 04:18:23;;;;;;;6.15;3.22;;;;;;;8.52;60.97;100240.75;4401685;32;32509;-87
2021/11/05 04:20:51;;;;;;;6.75;3.65;;;;;;;8.91;59.80;100241.06;4381578;32;33348;-87
2021/11/05 04:23:18;;;;;;;7.65;4.00;;;;;;;8.97;59.91;100242.69;4380183;32;35136;-87
2021/11/05 04:25:47;;;;;;;5.70;3.10;;;;;;;8.72;60.40;100248.25;4388442;32;33854;-86
2021/11/05 04:28:15;;;;;;;7.45;3.70;;;;;;;8.92;59.72;100244.50;4362991;32;32476;-87
2021/11/05 04:30:44;;;;;;;5.80;3.58;;;;;;;9.14;58.99;100253.66;4375772;32;33261;-87
2021/11/05 04:33:12;;;;;;;9.30;3.53;;;;;;;8.97;59.23;100259.12;4363308;32;34250;-88
2021/11/05 04:35:41;;;;;;;8.05;3.30;;;;;;;8.88;59.78;100254.06;4363625;32;34137;-87
2021/11/05 04:38:09;;;;;;;6.72;3.10;;;;;;;9.27;58.54;100245.66;4388051;32;33042;-87
2021/11/05 04:40:38;;;;;;;8.15;4.03;;;;;;;9.14;58.54;100239.81;4375787;32;33906;-88
2021/11/05 04:43:05;;;;;;;9.88;3.70;;;;;;;9.34;58.01;100255.06;4375606;32;33704;-86
2021/11/05 04:45:34;;;;;;;6.55;4.12;;;;;;;8.74;60.16;100266.44;4375381;32;33539;-88
2021/11/05 04:48:02;;;;;;;10.57;4.25;;;;;;;9.01;59.42;100270.34;4388287;32;33501;-87
2021/11/05 04:50:30;;;;;;;8.18;4.05;;;;;;;8.98;59.64;100281.66;4388549;32;34821;-87
2021/11/05 04:52:58;;;;;;;5.75;3.42;;;;;;;8.85;60.07;100265.41;4388471;32;35587;-87
2021/11/05 04:55:29;;;;;;;6.25;3.20;;;;;;;9.14;58.79;100252.81;4387394;32;33962;-87
2021/11/05 04:57:57;;;;;;;7.82;3.67;;;;;;;9.35;58.07;100249.84;4375687;32;34471;-87
2021/11/05 05:00:25;;;;;;;7.28;3.83;;;;;;;9.05;58.47;100256.41;4378705;32;32812;-87
2021/11/05 05:02:54;;;;;;;6.65;3.50;;;;;;;9.09;58.76;100242.47;4400399;32;33534;-87
2021/11/05 05:05:24;;;;;;;5.47;2.95;;;;;;;9.14;58.70;100248.47;4375357;32;33390;-87
2021/11/05 05:07:51;;;;;;;6.93;3.72;;;;;;;9.34;57.77;100249.88;4375401;32;33041;-87
2021/11/05 05:10:20;;;;;;;6.87;3.70;;;;;;;9.51;56.74;100257.37;4365074;32;34310;-87
2021/11/05 05:12:48;;;;;;;10.00;3.22;;;;;;;9.32;57.10;100249.91;4378014;32;34035;-87
2021/11/05 05:15:16;;;;;;;8.40;3.45;;;;;;;9.19;58.31;100253.59;4365483;32;33698;-87
2021/11/05 05:17:44;;;;;;;6.65;3.53;;;;;;;8.92;59.44;100266.16;4377633;32;32639;-86
2021/11/05 05:20:14;;;;;;;9.07;5.28;;;;;;;9.10;59.02;100265.00;4402545;32;33328;-87
2021/11/05 05:22:42;;;;;;;6.40;3.80;;;;;;;8.80;59.82;100268.94;4402414;32;34692;-86
2021/11/05 05:25:11;;;;;;;7.68;4.03;;;;;;;8.62;59.49;100277.87;4365851;32;33718;-87
2021/11/05 05:27:41;;;;;;;6.45;3.58;;;;;;;8.74;59.23;100292.44;4377901;32;33397;-87
2021/11/05 05:30:12;;;;;;;12.67;4.10;;;;;;;8.80;58.89;100302.72;4378205;32;34327;-87
2021/11/05 05:32:41;;;;;;;12.37;4.97;;;;;;;9.06;58.19;100304.06;4365992;32;33959;-87
2021/11/05 05:35:10;;;;;;;6.53;3.60;;;;;;;8.82;59.25;100298.37;4365965;32;32945;-87
2021/11/05 05:37:39;;;;;;;7.28;3.58;;;;;;;8.63;59.81;100296.03;4365835;32;33798;-87
2021/11/05 05:40:07;;;;;;;9.63;4.15;;;;;;;8.94;58.78;100310.31;4353921;32;33584;-86
2021/11/05 05:42:35;;;;;;;6.07;3.80;;;;;;;9.02;58.67;100319.69;4365261;32;34396;-87
2021/11/05 05:45:04;;;;;;;7.72;3.62;;;;;;;9.34;57.29;100322.69;4365192;32;35033;-86
2021/11/05 05:47:33;;;;;;;6.35;3.45;;;;;;;9.12;57.75;100306.56;4366194;32;32998;-87
2021/11/05 05:50:07;;;;;;;8.45;4.22;;;;;;;8.80;58.96;100311.37;4365106;32;34230;-87
2021/11/05 05:52:34;;;;;;;7.32;3.70;;;;;;;8.91;58.47;100307.75;4366389;32;33000;-87
2021/11/05 05:55:04;;;;;;;6.90;3.70;;;;;;;9.14;57.79;100302.22;4403156;32;33959;-87
2021/11/05 05:57:32;;;;;;;8.38;4.07;;;;;;;8.68;59.85;100308.94;4402385;32;33248;-85
2021/11/05 06:00:00;;;;;;;10.73;3.53;;;;;;;8.92;59.74;100323.34;4414930;32;33971;-86
2021/11/05 06:02:30;;;;;;;5.37;3.00;;;;;;;9.03;58.59;100328.37;4392142;32;33335;-85
2021/11/05 06:05:02;;;;;;;6.68;3.40;;;;;;;9.40;56.80;100329.50;4367783;32;33975;-86
2021/11/05 06:07:30;;;;;;;5.80;3.17;;;;;;;9.61;55.91;100336.97;4365521;32;33705;-85
2021/11/05 06:09:58;;;;;;;7.15;3.00;;;;;;;9.63;55.87;100337.78;4402562;32;32697;-85
2021/11/05 06:12:28;;;;;;;5.53;2.95;;;;;;;9.62;55.69;100343.03;4377887;32;34183;-85
2021/11/05 06:14:56;;;;;;;5.72;3.12;;;;;;;9.61;55.58;100344.78;4365066;32;32821;-85
2021/11/05 06:17:24;;;;;;;7.37;4.15;;;;;;;9.92;54.95;100344.22;4365260;32;33173;-85
2021/11/05 06:19:52;;;;;;;7.50;3.22;;;;;;;9.79;56.12;100342.72;4377651;32;34720;-86
2021/11/05 06:22:20;;;;;;;5.28;3.22;;;;;;;9.97;55.53;100355.41;4378069;32;33691;-84
2021/11/05 06:24:48;;;;;;;5.72;3.33;;;;;;;10.19;54.53;100358.44;4365004;32;34485;-84
2021/11/05 06:27:16;;;;;;;10.77;5.05;;;;;;;10.19;54.22;100361.03;4365704;32;32099;-84
2021/11/05 06:29:44;;;;;;;11.15;4.25;;;;;;;10.17;54.31;100374.97;4377563;32;33264;-84
2021/11/05 06:32:13;;;;;;;6.20;3.47;;;;;;;9.38;57.13;100370.31;4390451;32;34356;-84
2021/11/05 06:34:41;;;;;;;7.37;3.37;;;;;;;9.88;56.25;100373.78;4365655;32;34424;-84
2021/11/05 06:37:10;;;;;;;7.87;3.83;;;;;;;9.95;55.69;100392.75;4377872;32;33904;-84
2021/11/05 06:39:39;;;;;;;6.28;3.55;;;;;;;10.27;54.84;100397.34;4365387;32;32825;-84
2021/11/05 06:42:08;;;;;;;8.90;3.90;;;;;;;10.35;54.44;100405.06;4365557;32;33841;-85
2021/11/05 06:44:36;;;;;;;10.68;4.45;;;;;;;10.50;53.91;100409.09;4384166;32;33790;-84
2021/11/05 06:47:04;;;;;;;13.40;5.93;;;;;;;10.67;53.52;100422.66;4397324;32;32744;-81
2021/11/05 06:49:34;;;;;;;7.80;4.82;;;;;;;10.56;54.35;100427.25;4380319;32;33738;-83
2021/11/05 06:52:02;;;;;;;7.32;4.50;;;;;;;10.75;54.16;100427.72;4391448;32;33594;-82
2021/11/05 06:54:30;;;;;;;9.18;4.32;;;;;;;10.77;53.83;100425.06;4365631;32;32942;-83
2021/11/05 06:56:58;;;;;;;7.95;3.83;;;;;;;10.83;53.85;100433.63;4365700;32;33250;-83
2021/11/05 06:59:27;;;;;;;6.30;3.40;;;;;;;10.92;54.15;100431.72;4390981;32;34595;-84
2021/11/05 07:01:55;;;;;;;6.20;3.95;;;;;;;10.69;54.29;100439.12;4366682;32;34265;-84
2021/11/05 07:04:25;;;;;;;9.43;4.62;;;;;;;10.83;53.69;100451.88;4390454;32;35125;-83
2021/11/05 07:06:53;;;;;;;10.27;4.60;;;;;;;10.71;54.12;100457.34;4377821;32;33346;-83
2021/11/05 07:09:22;;;;;;;730.17;76.55;;;;;;;10.90;54.14;100456.97;4365505;32;32785;-84
2021/11/05 07:11:53;;;;;;;11.57;4.60;;;;;;;10.69;55.62;100456.53;4356297;32;32319;-84
2021/11/05 07:14:22;;;;;;;12.07;5.85;;;;;;;10.90;54.76;100462.19;4387259;32;34372;-83
2021/11/05 07:16:50;;;;;;;15.43;7.47;;;;;;;11.03;54.70;100469.72;4390014;32;32307;-83
2021/11/05 07:19:24;;;;;;;22.73;11.35;;;;;;;11.05;54.13;100484.47;4378569;32;33230;-83
2021/11/05 07:21:59;;;;;;;11.65;5.43;;;;;;;11.08;54.26;100473.97;4390880;32;34165;-83
2021/11/05 07:24:28;;;;;;;11.85;4.25;;;;;;;11.11;54.01;100468.69;4390569;32;32860;-83
2021/11/05 07:26:56;;;;;;;9.00;4.18;;;;;;;11.07;54.10;100467.87;4366099;32;33445;-84
2021/11/05 07:29:26;;;;;;;8.55;4.55;;;;;;;11.20;54.09;100465.88;4365304;32;34396;-84
2021/11/05 07:31:58;;;;;;;8.93;4.70;;;;;;;11.13;54.19;100474.75;4376693;32;33140;-84
2021/11/05 07:34:30;;;;;;;7.28;4.47;;;;;;;11.14;53.71;100476.44;4377757;32;33022;-84
2021/11/05 07:37:00;;;;;;;8.30;4.30;;;;;;;11.12;54.13;100478.25;4366017;32;33327;-84
2021/11/05 07:39:29;;;;;;;9.23;4.35;;;;;;;11.15;53.86;100483.38;4379192;32;33684;-85
2021/11/05 07:41:58;;;;;;;8.77;4.75;;;;;;;11.23;53.77;100488.44;4367194;32;32991;-85
2021/11/05 07:44:25;;;;;;;15.95;5.20;;;;;;;11.32;53.71;100477.78;4392286;32;33546;-84
2021/11/05 07:46:54;;;;;;;12.15;4.50;;;;;;;11.45;53.17;100476.63;4366246;32;32324;-85
2021/11/05 07:49:22;;;;;;;7.00;4.03;;;;;;;11.48;52.79;100481.75;4377760;32;32657;-86
2021/11/05 07:51:53;;;;;;;6.87;3.83;;;;;;;11.36;52.94;100479.44;4377617;32;32759;-85
2021/11/05 07:54:22;;;;;;;6.65;3.90;;;;;;;11.57;52.66;100470.28;4401863;32;35356;-85
2021/11/05 07:56:51;;;;;;;6.10;3.67;;;;;;;11.47;53.51;100473.97;4365063;32;33501;-85
2021/11/05 07:59:18;;;;;;;7.15;3.83;;;;;;;11.48;53.57;100468.72;4377788;32;33506;-85
2021/11/05 08:01:47;;;;;;;8.93;3.62;;;;;;;11.50;53.60;100471.28;4365631;32;33610;-84
2021/11/05 08:04:16;;;;;;;10.52;3.55;;;;;;;11.41;53.50;100471.50;4377590;32;34511;-84
2021/11/05 08:06:43;;;;;;;7.32;3.37;;;;;;;11.50;53.44;100466.06;4377105;32;33814;-84
2021/11/05 08:09:13;;;;;;;6.07;3.53;;;;;;;11.33;53.65;100461.25;4365324;32;33768;-84
2021/11/05 08:11:40;;;;;;;10.13;4.00;;;;;;;11.34;53.23;100473.38;4391173;32;34912;-84
2021/11/05 08:14:08;;;;;;;8.57;3.80;;;;;;;11.45;53.08;100466.19;4365073;32;33379;-84
2021/11/05 08:16:36;;;;;;;7.40;3.60;;;;;;;11.44;52.93;100464.47;4365235;32;32545;-83
2021/11/05 08:19:05;;;;;;;6.93;3.87;;;;;;;11.58;52.62;100464.16;4379092;32;33801;-84
2021/11/05 08:21:35;;;;;;;7.78;3.90;;;;;;;11.39;53.42;100473.31;4378991;32;34121;-84
2021/11/05 08:24:04;;;;;;;6.87;4.07;;;;;;;11.45;53.23;100481.00;4379038;32;32877;-83
2021/11/05 08:26:33;;;;;;;6.53;4.00;;;;;;;11.57;52.91;100498.09;4379192;32;33660;-84
2021/11/05 08:29:07;;;;;;;7.03;4.30;;;;;;;11.43;52.99;100499.28;4379588;32;33934;-82
2021/11/05 08:31:35;;;;;;;13.90;4.30;;;;;;;11.19;54.27;100511.97;4367013;32;32869;-83
2021/11/05 08:34:03;;;;;;;5.87;3.72;;;;;;;10.89;54.75;100505.66;4367838;32;34664;-84
2021/11/05 08:36:31;;;;;;;7.78;3.85;;;;;;;11.25;54.25;100511.00;4404328;32;32370;-83
2021/11/05 08:38:59;;;;;;;7.03;4.43;;;;;;;11.59;53.38;100515.44;4367417;32;33883;-84
2021/11/05 08:41:27;;;;;;;8.23;3.83;;;;;;;11.67;53.18;100523.97;4379990;32;33390;-84
2021/11/05 08:43:56;;;;;;;8.95;3.85;;;;;;;11.74;52.76;100522.09;4366520;32;32642;-84
2021/11/05 08:46:29;;;;;;;6.78;3.72;;;;;;;12.02;52.21;100514.47;4389040;32;33527;-84
2021/11/05 08:49:10;;;;;;;6.87;3.80;;;;;;;11.84;52.37;100507.91;4389024;32;33457;-84
2021/11/05 08:51:41;;;;;;;6.62;3.62;;;;;;;12.09;52.03;100502.13;4389550;32;34041;-85
2021/11/05 08:54:09;;;;;;;8.40;3.87;;;;;;;12.45;51.31;100516.91;4389777;32;34241;-83
2021/11/05 08:56:38;;;;;;;9.70;3.35;;;;;;;12.69;51.00;100526.69;4364572;32;32624;-84
2021/11/05 08:59:12;;;;;;;6.53;3.15;;;;;;;12.55;50.12;100525.34;4389075;32;32438;-83
2021/11/05 09:01:42;;;;;;;5.50;2.80;;;;;;;12.85;49.44;100534.97;4364955;32;33728;-84
2021/11/05 09:04:12;;;;;;;7.50;2.92;;;;;;;13.09;48.62;100531.72;4364781;32;33876;-83
2021/11/05 09:06:41;;;;;;;4.82;2.37;;;;;;;13.25;48.19;100542.59;4390038;32;32007;-83
2021/11/05 09:09:09;;;;;;;4.57;2.20;;;;;;;13.43;47.63;100536.84;4377038;32;33908;-84
2021/11/05 09:11:37;;;;;;;3.10;1.52;;;;;;;13.62;45.64;100546.75;4363940;32;32660;-84
2021/11/05 09:14:06;;;;;;;4.45;1.73;;;;;;;13.26;44.08;100544.31;4376710;32;32501;-84
2021/11/05 09:16:35;;;;;;;3.25;1.52;;;;;;;13.61;43.80;100550.28;4364187;32;32299;-84
2021/11/05 09:19:04;;;;;;;9.07;1.90;;;;;;;13.56;43.24;100560.91;4389441;32;33867;-83
2021/11/05 09:21:33;;;;;;;4.28;1.73;;;;;;;13.46;43.10;100581.25;4376707;32;33072;-83
2021/11/05 09:24:02;;;;;;;15.23;3.33;;;;;;;13.46;42.50;100583.03;4377438;32;32314;-83
2021/11/05 09:26:30;;;;;;;4.53;1.45;;;;;;;13.70;42.27;100566.56;4378052;32;33045;-84
2021/11/05 09:28:58;;;;;;;3.78;1.58;;;;;;;14.05;41.71;100560.25;4364897;32;33516;-83
2021/11/05 09:31:26;;;;;;;4.22;1.40;;;;;;;13.83;41.22;100563.56;4364257;32;32568;-84
2021/11/05 09:33:55;;;;;;;3.30;1.55;;;;;;;14.09;41.28;100570.56;4364258;32;33133;-83
2021/11/05 09:36:23;;;;;;;3.67;1.42;;;;;;;14.02;41.69;100583.03;4389143;32;31981;-84
2021/11/05 09:38:52;;;;;;;3.00;1.42;;;;;;;14.05;41.33;100581.22;4388641;32;34327;-84
2021/11/05 09:41:20;;;;;;;6.12;1.30;;;;;;;13.61;41.82;100581.69;4364358;32;33173;-83
2021/11/05 09:43:48;;;;;;;3.72;1.45;;;;;;;13.86;41.32;100587.03;4351404;32;33413;-83
2021/11/05 09:46:16;;;;;;;8.55;1.90;;;;;;;13.98;41.04;100596.28;4376341;32;33652;-83
2021/11/05 09:48:44;;;;;;;3.80;1.58;;;;;;;14.01;41.34;100593.56;4376019;32;32800;-83
2021/11/05 09:51:13;;;;;;;5.65;1.70;;;;;;;14.06;40.80;100607.38;4388967;32;34814;-83
2021/11/05 09:53:42;;;;;;;6.40;1.85;;;;;;;14.06;41.28;100603.91;4369200;32;33160;-83
2021/11/05 09:56:14;;;;;;;5.15;2.03;;;;;;;13.79;42.13;100585.53;4407841;32;32791;-83
2021/11/05 09:58:43;;;;;;;4.45;2.00;;;;;;;13.82;42.44;100585.44;4414247;32;32828;-82
2021/11/05 10:01:12;;;;;;;2.90;1.70;;;;;;;13.26;43.28;100587.03;4418101;32;33653;-83
2021/11/05 10:03:41;;;;;;;5.78;1.90;;;;;;;13.42;42.57;100581.41;4371316;32;32771;-84
2021/11/05 10:06:12;;;;;;;7.18;1.92;;;;;;;13.08;43.61;100562.22;4392796;32;32486;-84
2021/11/05 10:08:40;;;;;;;2.62;1.65;;;;;;;13.31;42.88;100574.69;4411537;32;176244;-84
2021/11/05 10:11:27;;;;;;;8.85;2.25;;;;;;;13.54;42.10;100578.41;4380327;32;33246;-84
2021/11/05 10:13:56;;;;;;;6.97;2.50;;;;;;;13.32;42.48;100580.75;4379547;32;32741;-84
2021/11/05 10:16:25;;;;;;;4.40;1.87;;;;;;;13.20;43.25;100579.34;4381108;32;33420;-83
2021/11/05 10:19:00;;;;;;;10.45;2.55;;;;;;;13.55;42.87;100576.63;4391018;32;32592;-84
2021/11/05 10:21:40;;;;;;;3.72;2.17;;;;;;;13.65;42.29;100578.97;4402791;32;33625;-84
2021/11/05 10:24:17;;;;;;;4.95;2.55;;;;;;;13.76;41.71;100580.38;4375762;32;33073;-83
2021/11/05 10:26:49;;;;;;;4.32;2.10;;;;;;;13.75;42.29;100584.75;4375895;32;33231;-82
2021/11/05 10:29:36;;;;;;;4.35;1.98;;;;;;;14.07;41.64;100571.56;4390958;32;33752;-83
2021/11/05 10:32:08;;;;;;;3.55;2.20;;;;;;;14.00;41.66;100578.72;4391970;32;33084;-83
2021/11/05 10:34:51;;;;;;;4.93;2.20;;;;;;;13.96;41.54;100577.13;4392557;32;33647;-83
2021/11/05 10:37:32;;;;;;;9.23;2.85;;;;;;;14.18;41.38;100583.38;4416966;32;32199;-83
2021/11/05 10:40:01;;;;;;;12.05;2.47;;;;;;;14.45;40.90;100585.16;4402475;32;33365;-84
2021/11/05 10:42:41;;;;;;;4.50;2.28;;;;;;;14.41;40.53;100589.63;4391569;32;33301;-82
2021/11/05 10:45:09;;;;;;;6.72;2.25;;;;;;;14.52;40.87;100600.63;4378090;32;33713;-83
2021/11/05 10:48:00;;;;;;;4.90;2.08;;;;;;;14.74;40.22;100602.56;4395807;32;32671;-82
2021/11/05 10:50:50;;;;;;;6.37;2.55;;;;;;;14.87;39.36;100588.09;4390677;32;32983;-82
2021/11/05 10:53:24;;;;;;;5.65;2.17;;;;;;;14.74;39.56;100591.22;4391490;32;34348;-83
2021/11/05 10:55:54;;;;;;;5.90;2.20;;;;;;;14.83;39.07;100596.13;4403287;32;33436;-83
2021/11/05 10:58:37;;;;;;;4.45;2.40;;;;;;;14.30;40.65;100590.00;4390785;32;34023;-83
2021/11/05 11:01:12;;;;;;;5.75;2.67;;;;;;;14.47;40.37;100583.34;4403537;32;32946;-83
2021/11/05 11:03:48;;;;;;;7.65;3.15;;;;;;;14.55;40.67;100594.44;4385183;32;34835;-83
2021/11/05 11:06:18;;;;;;;10.10;3.33;;;;;;;14.57;40.96;100579.53;4390561;32;33011;-83
2021/11/05 11:08:48;;;;;;;8.30;3.22;;;;;;;14.93;40.81;100594.03;4377522;32;32651;-83
2021/11/05 11:11:32;;;;;;;5.78;2.70;;;;;;;15.21;40.30;100586.03;4402375;32;33108;-83
2021/11/05 11:14:17;;;;;;;5.82;2.33;;;;;;;14.98;40.52;100581.62;4392164;32;33744;-82
2021/11/05 11:16:48;;;;;;;5.32;2.75;;;;;;;14.93;40.54;100580.91;4395745;32;33867;-81
2021/11/05 11:19:19;;;;;;;5.10;2.72;;;;;;;14.84;40.74;100588.22;4393294;32;32133;-82
2021/11/05 11:21:46;;;;;;;5.15;2.95;;;;;;;14.78;40.93;100587.56;4360876;32;34036;-82
2021/11/05 11:24:22;;;;;;;4.70;2.40;;;;;;;14.73;40.84;100584.25;4391189;32;34035;-82
2021/11/05 11:26:51;;;;;;;11.32;3.03;;;;;;;14.62;41.05;100590.69;4378537;32;33492;-84
2021/11/05 11:29:23;;;;;;;7.65;3.33;;;;;;;14.74;40.84;100597.31;4401766;32;33387;-84
2021/11/05 11:31:54;;;;;;;4.87;2.62;;;;;;;14.74;40.69;100596.47;4383901;32;32796;-82
2021/11/05 11:34:23;;;;;;;4.93;2.47;;;;;;;14.69;41.21;100596.59;4391280;32;34382;-82
2021/11/05 11:36:54;;;;;;;7.12;2.72;;;;;;;14.86;40.43;100585.53;4378411;32;33581;-83
2021/11/05 11:39:23;;;;;;;6.18;2.80;;;;;;;14.83;40.63;100589.13;4390076;32;32145;-85